Shady Beach, South Dakota
Current Conditions -  °F | °C
As of 3:14 PM on Sunday 23 Nov 2014 (Local Time) from KVVV Reporting Station
Clear Clear  
Wind Chill: 30°   Ceiling: Unl
Heat Index: 37°   Visibility: 10mi
Dew Point: 28°   Wind: 10mph
Humidity: 70%   Direction: 290°WNW
Pressure: 29.47"   Gusts: NA
Location:  45.3641°N, 96.6682°W
Report Text: KVVV 232114Z AUTO 29009KT 10SM CLR 03/M02 A2947 RMK AO2
Loading
Personal Weather Stations






























Interactive Weather Map New forecast layout! Learn more

10-Day Weather Forecast

Advertisements
Track Severe Weather on mobile